Terminal Aerodrome Forecast
Issued by NWS

Home | Current Version | Previous Version | Text Only | Print | Product List | Glossary On
Versions: 1 2 3 4 5 6 7 8 9 10 11 12 13 14
000
FTUS46 KMTR 030500
TAFSJC
TAF
KSJC 030525Z 0306/0406 33008KT P6SM FEW014 BKN180
     FM031000 VRB04KT P6SM BKN015
     FM031800 30006KT P6SM FEW020
     FM032100 31015G21KT P6SM FEW020 SCT200
     FM040500 32009KT P6SM FEW015 BKN180=

USA.gov is the U.S. government's official web portal to all federal, state and local government web resources and services.